Time;durP1;ratioP1;P1;durP2;ratioP2;P2;SDS_P1;SDS_P2;PMS_P1;PMS_P2;Temp;Humidity;BMP_temperature;BMP_pressure;BME280_temperature;BME280_humidity;BME280_pressure;Samples;Min_cycle;Max_cycle;Signal;HPM_P1;HPM_P2
2021/03/14 00:00:38;;;;;;;18.13;9.95;;;3.60;93.50;;;;;;5062415;28;20047;-73
2021/03/14 00:03:07;;;;;;;17.25;9.82;;;3.60;93.40;;;;;;5046786;28;20322;-73
2021/03/14 00:05:33;;;;;;;20.38;10.18;;;3.50;93.40;;;;;;5062446;28;20191;-73
2021/03/14 00:07:59;;;;;;;19.25;9.82;;;3.60;93.50;;;;;;5063940;28;20052;-73
2021/03/14 00:10:25;;;;;;;16.52;9.23;;;3.60;93.40;;;;;;5066345;28;20029;-73
2021/03/14 00:12:50;;;;;;;19.27;9.55;;;3.60;93.40;;;;;;5067642;28;20020;-73
2021/03/14 00:15:19;;;;;;;20.98;10.02;;;3.70;93.50;;;;;;5052255;28;20091;-73
2021/03/14 00:17:45;;;;;;;21.25;10.10;;;3.70;93.30;;;;;;5068991;28;20017;-73
2021/03/14 00:20:11;;;;;;;17.30;9.68;;;3.70;93.20;;;;;;5068772;28;20019;-74
2021/03/14 00:22:36;;;;;;;19.33;10.32;;;3.70;93.10;;;;;;5068537;28;20009;-73
2021/03/14 00:25:05;;;;;;;19.85;10.70;;;3.70;93.10;;;;;;5069572;28;20210;-74
2021/03/14 00:27:30;;;;;;;17.52;10.63;;;3.70;93.20;;;;;;5066579;28;20076;-73
2021/03/14 00:29:56;;;;;;;21.20;9.98;;;3.70;93.10;;;;;;5049310;28;20357;-73
2021/03/14 00:32:21;;;;;;;18.00;10.38;;;3.70;93.20;;;;;;5066239;28;20037;-74
2021/03/14 00:34:47;;;;;;;21.25;10.85;;;3.60;93.10;;;;;;5073223;28;20314;-73
2021/03/14 00:37:13;;;;;;;22.48;11.27;;;3.60;93.20;;;;;;5068888;28;20017;-73
2021/03/14 00:39:38;;;;;;;20.88;11.52;;;3.60;93.20;;;;;;5066820;28;20134;-73
2021/03/14 00:42:04;;;;;;;16.27;10.68;;;3.60;93.30;;;;;;5067291;28;20008;-74
2021/03/14 00:44:30;;;;;;;22.77;12.25;;;3.50;93.30;;;;;;5070452;28;20387;-74
2021/03/14 00:46:56;;;;;;;20.58;12.38;;;3.60;93.40;;;;;;5058801;28;20025;-74
2021/03/14 00:49:21;;;;;;;22.50;12.13;;;3.60;93.30;;;;;;5049387;28;20222;-74
2021/03/14 00:51:47;;;;;;;24.75;13.50;;;3.60;93.30;;;;;;5066365;28;20047;-74
2021/03/14 00:54:13;;;;;;;23.58;13.23;;;3.50;93.30;;;;;;5051082;28;20179;-74
2021/03/14 00:56:38;;;;;;;21.77;14.13;;;3.40;93.40;;;;;;5070427;28;20013;-74
2021/03/14 00:59:04;;;;;;;22.27;13.20;;;3.40;93.50;;;;;;5048991;28;20016;-74
2021/03/14 01:01:29;;;;;;;23.55;13.13;;;3.40;93.50;;;;;;5065228;28;20055;-74
2021/03/14 01:03:55;;;;;;;28.83;13.55;;;3.30;93.50;;;;;;5065500;28;20025;-74
2021/03/14 01:06:21;;;;;;;21.38;12.43;;;3.30;93.60;;;;;;5048475;28;20360;-74
2021/03/14 01:08:48;;;;;;;26.20;12.85;;;3.30;93.60;;;;;;5064784;28;20336;-74
2021/03/14 01:11:14;;;;;;;20.52;12.73;;;3.40;93.70;;;;;;5065622;28;20226;-74
2021/03/14 01:13:39;;;;;;;24.00;11.85;;;3.40;93.70;;;;;;5065115;28;20017;-74
2021/03/14 01:16:05;;;;;;;22.58;10.82;;;3.40;93.60;;;;;;5078196;28;20005;-74
2021/03/14 01:18:31;;;;;;;22.90;12.00;;;3.40;93.50;;;;;;5064843;28;20190;-74
2021/03/14 01:20:56;;;;;;;21.45;11.75;;;3.50;93.50;;;;;;5064643;28;20080;-74
2021/03/14 01:23:22;;;;;;;24.35;11.45;;;3.50;93.50;;;;;;5049224;28;20005;-73
2021/03/14 01:25:48;;;;;;;21.52;11.15;;;3.50;93.40;;;;;;5077537;28;20009;-73
2021/03/14 01:28:13;;;;;;;26.35;11.27;;;3.50;93.50;;;;;;5045126;28;20037;-73
2021/03/14 01:30:39;;;;;;;20.02;11.55;;;3.50;93.50;;;;;;5072479;28;20033;-73
2021/03/14 01:33:05;;;;;;;24.75;10.73;;;3.50;93.40;;;;;;5078197;28;20053;-73
2021/03/14 01:35:31;;;;;;;22.02;11.30;;;3.50;93.30;;;;;;5061234;28;20020;-74
2021/03/14 01:37:56;;;;;;;18.08;10.93;;;3.50;93.40;;;;;;5061006;28;20017;-73
2021/03/14 01:40:23;;;;;;;18.58;10.15;;;3.60;93.40;;;;;;5077882;28;20021;-73
2021/03/14 01:42:48;;;;;;;14.63;9.68;;;3.50;93.30;;;;;;5052980;28;20017;-73
2021/03/14 01:45:14;;;;;;;18.35;10.57;;;3.60;93.30;;;;;;5072301;28;20044;-73
2021/03/14 01:47:42;;;;;;;17.02;10.00;;;3.50;93.30;;;;;;5056686;28;20368;-72
2021/03/14 01:50:10;;;;;;;21.40;10.10;;;3.60;93.30;;;;;;5065584;28;20084;-73
2021/03/14 01:52:36;;;;;;;20.92;9.60;;;3.70;93.20;;;;;;5059524;28;20022;-73
2021/03/14 01:55:02;;;;;;;20.30;10.20;;;3.70;93.10;;;;;;5048145;28;20435;-73
2021/03/14 01:57:28;;;;;;;15.73;9.10;;;3.70;93.10;;;;;;5064502;28;20047;-73
2021/03/14 01:59:53;;;;;;;17.75;9.25;;;3.70;93.40;;;;;;5044824;28;20005;-73
2021/03/14 02:02:20;;;;;;;18.50;9.23;;;3.70;93.00;;;;;;5043492;28;20020;-73
2021/03/14 02:04:45;;;;;;;19.33;9.77;;;3.70;93.00;;;;;;5067044;28;20066;-73
2021/03/14 02:07:11;;;;;;;15.80;9.25;;;3.80;93.10;;;;;;5064322;28;20049;-73
2021/03/14 02:09:37;;;;;;;24.13;9.85;;;3.80;93.00;;;;;;5047568;28;20044;-73
2021/03/14 02:12:02;;;;;;;16.10;9.05;;;3.80;92.90;;;;;;5064367;28;20102;-73
2021/03/14 02:14:28;;;;;;;22.40;9.60;;;3.80;93.00;;;;;;5045015;28;20068;-73
2021/03/14 02:16:54;;;;;;;20.55;9.80;;;3.80;92.90;;;;;;5035281;28;20084;-73
2021/03/14 02:19:28;;;;;;;20.13;10.77;;;3.90;92.90;;;;;;5047149;28;20281;-73
2021/03/14 02:21:56;;;;;;;19.15;9.82;;;3.80;92.90;;;;;;5032915;28;20029;-73
2021/03/14 02:24:23;;;;;;;18.95;10.85;;;3.80;92.90;;;;;;5047328;28;20301;-73
2021/03/14 02:27:03;;;;;;;19.95;9.38;;;3.80;92.90;;;;;;5054244;28;20083;-73
2021/03/14 02:29:28;;;;;;;21.50;10.27;;;3.90;92.90;;;;;;5064242;28;20025;-73
2021/03/14 02:31:55;;;;;;;17.33;9.82;;;3.90;92.90;;;;;;5063896;28;20400;-73
2021/03/14 02:34:23;;;;;;;21.55;9.95;;;3.90;92.80;;;;;;5063531;28;20001;-73
2021/03/14 02:36:49;;;;;;;21.02;10.02;;;3.90;92.80;;;;;;5064856;28;20237;-73
2021/03/14 02:39:16;;;;;;;19.92;9.50;;;3.90;92.70;;;;;;5063345;28;20080;-73
2021/03/14 02:41:42;;;;;;;20.75;9.30;;;3.90;92.60;;;;;;5063567;28;20009;-73
2021/03/14 02:44:08;;;;;;;18.77;9.40;;;3.90;92.60;;;;;;5063736;28;20004;-73
2021/03/14 02:46:34;;;;;;;21.60;9.00;;;3.90;92.70;;;;;;5043757;28;20025;-73
2021/03/14 02:48:59;;;;;;;21.13;9.70;;;3.80;92.70;;;;;;5045297;28;20017;-73
2021/03/14 02:51:26;;;;;;;19.70;9.70;;;3.90;92.70;;;;;;5047208;28;20005;-73
2021/03/14 02:53:51;;;;;;;18.38;8.35;;;3.90;92.70;;;;;;5045863;28;20021;-73
2021/03/14 02:56:17;;;;;;;23.50;8.70;;;3.90;92.70;;;;;;5063561;28;20122;-73
2021/03/14 02:58:43;;;;;;;15.15;8.45;;;3.90;92.60;;;;;;5046872;28;20373;-72
2021/03/14 03:01:08;;;;;;;16.73;8.13;;;3.90;92.60;;;;;;5063121;28;20017;-73
2021/03/14 03:03:34;;;;;;;17.40;8.27;;;4.00;92.60;;;;;;5063131;28;20041;-73
2021/03/14 03:06:00;;;;;;;15.88;8.43;;;3.90;92.90;;;;;;5057775;28;20174;-73
2021/03/14 03:08:26;;;;;;;14.77;9.02;;;4.00;92.60;;;;;;5065513;28;20024;-73
2021/03/14 03:10:52;;;;;;;15.90;7.97;;;4.00;92.60;;;;;;5062937;28;20013;-73
2021/03/14 03:13:18;;;;;;;20.00;8.00;;;4.00;92.60;;;;;;5062457;28;20044;-73
2021/03/14 03:15:43;;;;;;;16.83;8.35;;;3.90;92.60;;;;;;5062972;28;20427;-73
2021/03/14 03:18:09;;;;;;;15.07;7.82;;;4.00;92.70;;;;;;5046060;28;20083;-73
2021/03/14 03:20:35;;;;;;;18.25;7.75;;;4.00;92.60;;;;;;5062944;28;20020;-73
2021/03/14 03:23:00;;;;;;;22.25;8.15;;;4.00;92.60;;;;;;5062627;28;20333;-73
2021/03/14 03:25:26;;;;;;;17.33;8.00;;;4.10;92.70;;;;;;5062119;28;20017;-73
2021/03/14 03:27:52;;;;;;;14.93;8.07;;;4.10;92.80;;;;;;5046037;28;20012;-73
2021/03/14 03:30:19;;;;;;;18.10;8.13;;;4.10;92.70;;;;;;5045570;28;20024;-73
2021/03/14 03:32:45;;;;;;;14.27;6.85;;;4.10;92.70;;;;;;5062229;28;20063;-73
2021/03/14 03:35:11;;;;;;;19.63;7.85;;;4.10;92.70;;;;;;5065432;28;20082;-73
2021/03/14 03:37:37;;;;;;;20.02;7.50;;;4.10;92.70;;;;;;5045650;28;20009;-73
2021/03/14 03:40:08;;;;;;;16.00;7.38;;;4.20;92.80;;;;;;5062170;28;20253;-73
2021/03/14 03:42:35;;;;;;;13.93;7.30;;;4.30;92.70;;;;;;5046152;28;20024;-73
2021/03/14 03:45:01;;;;;;;17.67;7.75;;;4.30;92.50;;;;;;5052066;28;20017;-73
2021/03/14 03:47:27;;;;;;;22.30;8.05;;;4.30;92.50;;;;;;5051662;28;20013;-73
2021/03/14 03:49:53;;;;;;;16.83;7.88;;;4.30;92.40;;;;;;5066216;28;20348;-74
2021/03/14 03:52:20;;;;;;;19.00;8.05;;;4.30;92.30;;;;;;5049707;28;20012;-75
2021/03/14 03:54:46;;;;;;;19.88;8.68;;;4.30;92.30;;;;;;5066113;28;20262;-73
2021/03/14 03:57:12;;;;;;;17.40;9.52;;;4.20;92.30;;;;;;5069944;28;20191;-73
2021/03/14 03:59:38;;;;;;;14.90;9.30;;;4.20;92.40;;;;;;5068858;28;20048;-73
2021/03/14 04:02:04;;;;;;;19.20;11.10;;;4.10;92.40;;;;;;5065995;28;20016;-73
2021/03/14 04:04:29;;;;;;;27.90;12.00;;;4.00;92.50;;;;;;5045552;28;20017;-73
2021/03/14 04:06:56;;;;;;;26.35;11.27;;;3.90;92.70;;;;;;5032454;28;20116;-73
2021/03/14 04:09:22;;;;;;;26.58;11.40;;;3.80;92.80;;;;;;5045224;28;20032;-73
2021/03/14 04:11:48;;;;;;;23.02;11.63;;;3.70;92.90;;;;;;5060273;28;20063;-73
2021/03/14 04:14:13;;;;;;;26.83;11.82;;;3.70;93.00;;;;;;5065217;28;20016;-73
2021/03/14 04:16:39;;;;;;;24.50;11.10;;;3.60;93.10;;;;;;5031310;28;20064;-73
2021/03/14 04:19:06;;;;;;;23.45;12.02;;;3.70;93.20;;;;;;5028386;28;20021;-73
2021/03/14 04:21:32;;;;;;;23.38;10.43;;;3.70;93.20;;;;;;5047614;28;20085;-73
2021/03/14 04:23:57;;;;;;;20.35;10.63;;;3.80;93.10;;;;;;5057899;28;20058;-73
2021/03/14 04:26:23;;;;;;;20.73;10.15;;;3.80;92.90;;;;;;5045000;28;20040;-73
2021/03/14 04:28:50;;;;;;;22.85;10.38;;;3.90;93.20;;;;;;5046705;28;20017;-73
2021/03/14 04:31:16;;;;;;;24.75;11.65;;;3.90;92.80;;;;;;5064965;28;20080;-73
2021/03/14 04:33:42;;;;;;;24.25;12.25;;;4.00;92.80;;;;;;5048150;28;20063;-73
2021/03/14 04:36:09;;;;;;;27.85;12.93;;;4.00;92.90;;;;;;5065066;28;20009;-73
2021/03/14 04:38:35;;;;;;;32.22;13.90;;;4.00;93.00;;;;;;5031663;28;20314;-73
2021/03/14 04:41:00;;;;;;;23.88;12.52;;;4.00;93.20;;;;;;5047828;28;20009;-73
2021/03/14 04:43:26;;;;;;;22.05;13.23;;;4.00;93.20;;;;;;5065039;28;20009;-73
2021/03/14 04:45:52;;;;;;;29.20;13.75;;;4.10;93.30;;;;;;5064746;28;20008;-73
2021/03/14 04:48:21;;;;;;;25.98;12.07;;;4.10;93.30;;;;;;5064657;28;20013;-73
2021/03/14 04:50:47;;;;;;;30.38;13.30;;;4.20;93.30;;;;;;5028323;28;20048;-73
2021/03/14 04:53:13;;;;;;;24.65;13.10;;;4.20;93.30;;;;;;5044912;28;20063;-73
2021/03/14 04:55:39;;;;;;;24.83;13.30;;;4.20;93.40;;;;;;5052571;28;20193;-73
2021/03/14 04:58:04;;;;;;;24.23;12.70;;;4.20;93.50;;;;;;5068218;28;20310;-73
2021/03/14 05:00:30;;;;;;;25.55;12.95;;;4.30;93.50;;;;;;5038388;28;20013;-74
2021/03/14 05:02:56;;;;;;;31.05;12.02;;;4.30;93.50;;;;;;5064840;28;20013;-74
2021/03/14 05:05:22;;;;;;;17.58;9.60;;;4.30;93.50;;;;;;5067469;28;20037;-74
2021/03/14 05:07:48;;;;;;;21.63;9.77;;;4.30;93.30;;;;;;5068288;28;20020;-73
2021/03/14 05:10:21;;;;;;;22.98;10.13;;;4.30;93.20;;;;;;5052460;28;20257;-73
2021/03/14 05:12:47;;;;;;;27.30;11.02;;;4.40;93.20;;;;;;5032053;28;20206;-73
2021/03/14 05:15:14;;;;;;;25.63;10.93;;;4.40;93.10;;;;;;5060886;28;20072;-73
2021/03/14 05:17:40;;;;;;;22.40;9.98;;;4.40;93.10;;;;;;5067615;28;20008;-74
2021/03/14 05:20:07;;;;;;;23.10;10.05;;;4.40;93.10;;;;;;5053248;28;20020;-73
2021/03/14 05:22:36;;;;;;;27.90;10.32;;;4.50;92.90;;;;;;5064255;28;20149;-73
2021/03/14 05:25:03;;;;;;;27.17;11.32;;;4.50;92.90;;;;;;5064375;28;20029;-75
2021/03/14 05:27:28;;;;;;;26.17;10.57;;;4.50;92.80;;;;;;5048004;28;20202;-73
2021/03/14 05:29:54;;;;;;;26.17;11.82;;;4.50;92.90;;;;;;5055431;28;20033;-73
2021/03/14 05:32:19;;;;;;;24.60;12.38;;;4.50;93.00;;;;;;5070983;28;20009;-73
2021/03/14 05:34:45;;;;;;;30.88;12.30;;;4.50;93.10;;;;;;5047366;28;20047;-73
2021/03/14 05:37:11;;;;;;;33.92;13.30;;;4.50;93.20;;;;;;5080940;28;20004;-73
2021/03/14 05:39:36;;;;;;;32.78;13.82;;;4.50;93.40;;;;;;5085748;28;20088;-73
2021/03/14 05:42:03;;;;;;;28.48;13.52;;;4.40;93.60;;;;;;5073838;28;20055;-73
2021/03/14 05:44:29;;;;;;;29.42;12.85;;;4.40;93.80;;;;;;5064048;28;20013;-73
2021/03/14 05:46:55;;;;;;;27.75;12.48;;;4.40;93.80;;;;;;5064139;28;20005;-73
2021/03/14 05:49:21;;;;;;;34.00;13.15;;;4.40;93.90;;;;;;5030416;28;20025;-73
2021/03/14 05:51:50;;;;;;;26.45;13.15;;;4.50;94.10;;;;;;5067244;28;19994;-75
2021/03/14 05:54:16;;;;;;;34.63;13.80;;;4.50;94.10;;;;;;5076603;28;20064;-73
2021/03/14 05:56:43;;;;;;;29.52;13.00;;;4.50;94.10;;;;;;5057555;28;20032;-74
2021/03/14 05:59:09;;;;;;;22.85;11.40;;;4.60;94.00;;;;;;5041291;28;20045;-74
2021/03/14 06:01:35;;;;;;;22.38;10.25;;;4.50;93.70;;;;;;5076981;28;20096;-74
2021/03/14 06:04:01;;;;;;;19.08;10.32;;;4.40;93.40;;;;;;5077155;28;20016;-74
2021/03/14 06:06:27;;;;;;;16.08;10.65;;;4.30;93.30;;;;;;5081829;28;20086;-74
2021/03/14 06:08:53;;;;;;;20.73;11.23;;;4.30;93.40;;;;;;5087657;28;20084;-74
2021/03/14 06:11:19;;;;;;;20.80;11.70;;;4.20;93.30;;;;;;5067822;28;20009;-74
2021/03/14 06:13:44;;;;;;;19.42;9.77;;;4.30;93.40;;;;;;5063815;28;20079;-74
2021/03/14 06:16:10;;;;;;;14.90;8.20;;;4.30;93.20;;;;;;5054037;28;20032;-73
2021/03/14 06:18:36;;;;;;;14.65;7.28;;;4.20;93.10;;;;;;5081724;28;20240;-73
2021/03/14 06:21:02;;;;;;;16.55;6.25;;;4.20;93.10;;;;;;5063181;28;20306;-73
2021/03/14 06:23:28;;;;;;;14.95;5.20;;;4.20;93.20;;;;;;5059807;28;20010;-73
2021/03/14 06:25:55;;;;;;;15.27;6.13;;;4.20;93.30;;;;;;5067588;28;20020;-73
2021/03/14 06:28:35;;;;;;;14.70;7.15;;;4.10;93.30;;;;;;5066986;28;20015;-73
2021/03/14 06:31:20;;;;;;;14.45;7.30;;;4.20;93.50;;;;;;5027075;28;20099;-73
2021/03/14 06:33:46;;;;;;;14.30;8.18;;;4.20;93.30;;;;;;5046867;28;20023;-73
2021/03/14 06:36:13;;;;;;;17.45;7.93;;;4.10;93.30;;;;;;5066263;28;20013;-73
2021/03/14 06:38:39;;;;;;;13.50;7.43;;;4.10;93.30;;;;;;5050523;28;20033;-73
2021/03/14 06:41:04;;;;;;;11.68;7.00;;;4.10;93.30;;;;;;5066669;28;20024;-73
2021/03/14 06:43:40;;;;;;;20.67;8.45;;;4.10;93.20;;;;;;5066239;28;20008;-73
2021/03/14 06:46:22;;;;;;;15.63;7.53;;;4.10;93.10;;;;;;5070676;28;20013;-73
2021/03/14 06:49:07;;;;;;;12.07;7.28;;;4.20;93.00;;;;;;5036600;28;20036;-73
2021/03/14 06:51:43;;;;;;;16.50;7.30;;;4.20;93.00;;;;;;5058052;28;20019;-73
2021/03/14 06:54:22;;;;;;;9.38;6.55;;;4.20;92.90;;;;;;5061723;28;20070;-73
2021/03/14 06:56:57;;;;;;;12.18;6.57;;;4.30;92.70;;;;;;5065102;28;20206;-73
2021/03/14 06:59:22;;;;;;;13.30;6.60;;;4.40;92.70;;;;;;5066327;28;20005;-73
2021/03/14 07:02:11;;;;;;;18.02;7.32;;;4.40;92.40;;;;;;5069276;28;20023;-73
2021/03/14 07:04:45;;;;;;;11.63;7.38;;;4.40;92.60;;;;;;5031188;28;20084;-73
2021/03/14 07:07:15;;;;;;;14.30;7.18;;;4.40;92.60;;;;;;5045640;28;20030;-73
2021/03/14 07:09:40;;;;;;;14.75;7.82;;;4.40;92.70;;;;;;5065448;28;20029;-73
2021/03/14 07:12:17;;;;;;;18.08;8.48;;;4.50;92.80;;;;;;5065101;28;20426;-74
2021/03/14 07:14:42;;;;;;;13.68;7.25;;;4.40;92.80;;;;;;5030699;28;20108;-73
2021/03/14 07:17:08;;;;;;;16.00;7.82;;;4.40;92.70;;;;;;5063561;28;20013;-74
2021/03/14 07:19:34;;;;;;;12.70;7.45;;;4.30;92.70;;;;;;5048221;28;20052;-74
2021/03/14 07:22:09;;;;;;;14.38;7.30;;;4.30;92.90;;;;;;5030770;28;20010;-74
2021/03/14 07:24:39;;;;;;;17.05;7.07;;;4.20;92.60;;;;;;5041092;28;20025;-73
2021/03/14 07:27:12;;;;;;;14.50;7.15;;;4.20;92.70;;;;;;5049652;28;20276;-73
2021/03/14 07:29:39;;;;;;;16.92;6.95;;;4.30;92.80;;;;;;5035426;28;20393;-73
2021/03/14 07:32:05;;;;;;;10.68;6.28;;;4.30;92.50;;;;;;5050708;28;20020;-74
2021/03/14 07:34:31;;;;;;;14.43;5.78;;;4.20;92.20;;;;;;5047396;28;20012;-74
2021/03/14 07:36:57;;;;;;;9.32;6.20;;;4.10;92.10;;;;;;5064251;28;20010;-73
2021/03/14 07:39:22;;;;;;;9.98;5.22;;;4.20;92.00;;;;;;5075252;28;20053;-73
2021/03/14 07:41:48;;;;;;;6.50;4.20;;;4.10;91.90;;;;;;5057368;28;20019;-74
2021/03/14 07:44:18;;;;;;;10.18;4.15;;;4.10;91.80;;;;;;5050307;28;20012;-74
2021/03/14 07:46:43;;;;;;;9.75;4.32;;;4.10;91.70;;;;;;5050260;28;20091;-74
2021/03/14 07:49:16;;;;;;;5.93;3.25;;;4.10;91.50;;;;;;5066827;28;20021;-74
2021/03/14 07:51:44;;;;;;;7.75;3.92;;;4.10;91.30;;;;;;5050556;28;20021;-73
2021/03/14 07:54:11;;;;;;;4.55;2.13;;;4.20;91.30;;;;;;5034270;28;20012;-73
2021/03/14 07:56:39;;;;;;;2.80;1.63;;;4.00;90.50;;;;;;5066842;28;20028;-75
2021/03/14 07:59:05;;;;;;;2.97;1.38;;;4.00;90.60;;;;;;5067999;28;20016;-74
2021/03/14 08:01:32;;;;;;;1.50;1.17;;;3.90;90.10;;;;;;5067087;28;20017;-73
2021/03/14 08:03:58;;;;;;;1.48;1.10;;;3.90;90.10;;;;;;5067114;28;20008;-73
2021/03/14 08:06:42;;;;;;;1.38;1.10;;;3.90;90.00;;;;;;5050080;28;20048;-73
2021/03/14 08:09:08;;;;;;;1.25;1.05;;;3.80;90.00;;;;;;5070181;28;20052;-73
2021/03/14 08:11:34;;;;;;;2.85;1.38;;;3.90;90.00;;;;;;5058386;28;20016;-73
2021/03/14 08:13:59;;;;;;;1.92;1.17;;;3.90;90.00;;;;;;5067518;28;20009;-73
2021/03/14 08:16:25;;;;;;;3.97;1.40;;;4.00;90.10;;;;;;5050334;28;20024;-74
2021/03/14 08:18:52;;;;;;;4.07;1.50;;;4.10;90.20;;;;;;5049620;28;20184;-73
2021/03/14 08:21:20;;;;;;;2.00;1.10;;;4.20;90.00;;;;;;5068518;28;20005;-73
2021/03/14 08:23:47;;;;;;;1.73;1.27;;;4.20;90.00;;;;;;5067200;28;20013;-74
2021/03/14 08:26:16;;;;;;;2.13;1.05;;;4.20;89.10;;;;;;5065792;28;20039;-73
2021/03/14 08:28:53;;;;;;;3.92;1.30;;;4.30;88.90;;;;;;5066629;28;20017;-73
2021/03/14 08:31:42;;;;;;;6.00;1.40;;;4.40;89.00;;;;;;5070744;28;19997;-73
2021/03/14 08:34:09;;;;;;;6.50;1.20;;;4.40;88.90;;;;;;5038850;28;20017;-73
2021/03/14 08:36:37;;;;;;;7.88;1.50;;;4.50;88.30;;;;;;5065910;28;20036;-73
2021/03/14 08:39:04;;;;;;;4.75;1.65;;;4.50;87.90;;;;;;5065713;28;20004;-73
2021/03/14 08:41:30;;;;;;;6.60;1.60;;;4.50;88.70;;;;;;5067106;28;20275;-73
2021/03/14 08:43:59;;;;;;;8.43;2.03;;;4.40;89.70;;;;;;5065231;28;20334;-73
2021/03/14 08:46:50;;;;;;;6.43;1.90;;;4.50;90.10;;;;;;5065654;28;20032;-73
2021/03/14 08:49:20;;;;;;;7.20;1.92;;;5.10;88.70;;;;;;5065912;28;20099;-73
2021/03/14 08:51:45;;;;;;;4.10;1.50;;;5.00;87.40;;;;;;5063169;28;20017;-74
2021/03/14 08:54:11;;;;;;;4.70;1.77;;;5.30;87.20;;;;;;5074897;28;20016;-74
2021/03/14 08:56:37;;;;;;;7.05;1.92;;;6.20;85.30;;;;;;5057474;28;20021;-74
2021/03/14 08:59:12;;;;;;;4.60;1.50;;;5.80;84.60;;;;;;5048035;28;20167;-74
2021/03/14 09:01:38;;;;;;;5.38;1.73;;;6.10;84.00;;;;;;5061515;28;20070;-74
2021/03/14 09:04:14;;;;;;;8.20;2.05;;;5.80;84.40;;;;;;5053375;28;20341;-74
2021/03/14 09:06:39;;;;;;;18.63;10.23;;;5.70;85.50;;;;;;5066377;28;20040;-74
2021/03/14 09:09:18;;;;;;;7.07;2.17;;;5.80;85.60;;;;;;5065915;28;20021;-74
2021/03/14 09:11:44;;;;;;;6.05;1.88;;;5.70;85.60;;;;;;5065484;28;20242;-73
2021/03/14 09:14:34;;;;;;;7.88;2.50;;;5.60;85.10;;;;;;5067188;28;20021;-74
2021/03/14 09:17:07;;;;;;;10.35;2.08;;;5.50;85.60;;;;;;5046613;28;20306;-73
2021/03/14 09:19:34;;;;;;;4.85;2.22;;;5.40;86.50;;;;;;5056211;28;20005;-74
2021/03/14 09:22:18;;;;;;;12.38;2.17;;;6.70;85.00;;;;;;5050604;28;20016;-73
2021/03/14 09:24:47;;;;;;;10.98;2.20;;;8.30;79.30;;;;;;5051861;28;20005;-74
2021/03/14 09:27:19;;;;;;;8.60;1.92;;;8.90;76.00;;;;;;5067322;28;20020;-73
2021/03/14 09:29:55;;;;;;;8.75;2.35;;;8.20;75.60;;;;;;5066804;28;20226;-74
2021/03/14 09:32:28;;;;;;;9.32;2.42;;;7.60;78.60;;;;;;5051438;28;20013;-75
2021/03/14 09:35:20;;;;;;;9.23;2.72;;;7.00;80.30;;;;;;5051594;28;20001;-75
2021/03/14 09:37:56;;;;;;;7.40;2.35;;;6.70;82.00;;;;;;5062650;28;20094;-75
2021/03/14 09:40:32;;;;;;;11.50;2.47;;;6.90;83.00;;;;;;5047564;28;20018;-74
2021/03/14 09:43:22;;;;;;;14.45;2.80;;;6.70;83.10;;;;;;5067726;28;20310;-75
2021/03/14 09:46:14;;;;;;;12.65;2.90;;;6.80;84.00;;;;;;5062211;28;20207;-75
2021/03/14 09:48:40;;;;;;;15.80;3.40;;;6.70;84.10;;;;;;5053736;28;20330;-75
2021/03/14 09:51:07;;;;;;;14.57;3.03;;;6.70;84.40;;;;;;5050508;28;20050;-75
2021/03/14 09:53:39;;;;;;;12.50;2.58;;;7.10;84.80;;;;;;5048902;28;20013;-75
2021/03/14 09:56:10;;;;;;;14.80;2.60;;;7.20;83.50;;;;;;5056295;28;20029;-73
2021/03/14 09:58:36;;;;;;;12.32;2.58;;;7.20;83.80;;;;;;5067208;28;20322;-74
2021/03/14 10:01:02;;;;;;;15.23;3.03;;;7.40;83.00;;;;;;5067466;28;20076;-74
2021/03/14 10:03:32;;;;;;;15.70;3.10;;;9.00;82.30;;;;;;5050307;28;20044;-75
2021/03/14 10:05:58;;;;;;;20.70;3.25;;;9.60;76.90;;;;;;5069381;28;20044;-74
2021/03/14 10:08:26;;;;;;;14.18;2.92;;;10.20;74.00;;;;;;5069306;28;20005;-74
2021/03/14 10:10:57;;;;;;;17.77;2.85;;;11.00;72.40;;;;;;5067640;28;20025;-74
2021/03/14 10:13:25;;;;;;;12.10;2.73;;;10.60;72.00;;;;;;5051740;28;20186;-75
2021/03/14 10:15:51;;;;;;;12.77;2.90;;;10.30;72.70;;;;;;5068236;28;20261;-74
2021/03/14 10:18:18;;;;;;;21.73;3.50;;;9.10;74.20;;;;;;5068191;28;20018;-74
2021/03/14 10:20:44;;;;;;;25.10;4.78;;;8.20;77.80;;;;;;5052622;28;20005;-75
2021/03/14 10:23:09;;;;;;;12.95;2.90;;;8.20;80.50;;;;;;5038370;28;20040;-74
2021/03/14 10:25:36;;;;;;;17.30;2.92;;;8.20;79.90;;;;;;5073865;28;20044;-74
2021/03/14 10:28:07;;;;;;;18.88;3.13;;;8.10;80.80;;;;;;5075487;28;20029;-75
2021/03/14 10:30:32;;;;;;;14.93;2.97;;;9.10;80.50;;;;;;5076053;28;20096;-75
2021/03/14 10:32:58;;;;;;;16.25;3.35;;;9.70;77.40;;;;;;5096660;28;20031;-74
2021/03/14 10:35:24;;;;;;;20.58;3.33;;;9.20;76.60;;;;;;5062686;28;20021;-75
2021/03/14 10:37:49;;;;;;;16.83;3.55;;;8.90;77.30;;;;;;5072561;28;20033;-75
2021/03/14 10:40:19;;;;;;;21.40;3.33;;;8.30;78.90;;;;;;5069892;28;20012;-75
2021/03/14 10:42:49;;;;;;;18.65;3.30;;;8.10;79.60;;;;;;5053516;28;20009;-74
2021/03/14 10:45:16;;;;;;;17.17;3.35;;;8.60;80.50;;;;;;5068942;28;20080;-74
2021/03/14 10:47:42;;;;;;;18.98;3.13;;;8.20;79.80;;;;;;5051925;28;20033;-74
2021/03/14 10:50:15;;;;;;;21.27;3.95;;;8.30;80.70;;;;;;5047242;28;20033;-74
2021/03/14 10:52:41;;;;;;;18.30;3.47;;;8.70;80.50;;;;;;5064618;28;20020;-74
2021/03/14 10:55:32;;;;;;;24.17;4.20;;;8.30;79.80;;;;;;5068086;28;20007;-74
2021/03/14 10:58:07;;;;;;;24.08;3.78;;;7.90;79.60;;;;;;5069236;28;20182;-74
2021/03/14 11:00:34;;;;;;;16.08;3.67;;;8.90;80.90;;;;;;5051620;28;20029;-75
2021/03/14 11:03:00;;;;;;;17.40;4.00;;;9.20;75.30;;;;;;5068184;28;20028;-74
2021/03/14 11:05:26;;;;;;;18.17;3.90;;;8.80;77.80;;;;;;5067886;28;20017;-74
2021/03/14 11:07:59;;;;;;;19.13;4.03;;;9.60;75.90;;;;;;5051250;28;20017;-74
2021/03/14 11:10:25;;;;;;;17.65;4.50;;;9.80;76.00;;;;;;5066921;28;20017;-74
2021/03/14 11:12:50;;;;;;;15.88;4.20;;;10.30;75.20;;;;;;5070123;28;20071;-74
2021/03/14 11:15:30;;;;;;;24.90;5.32;;;8.80;75.70;;;;;;5051334;28;20079;-74
2021/03/14 11:17:56;;;;;;;27.02;6.47;;;8.30;78.50;;;;;;5051016;28;20020;-74
2021/03/14 11:20:23;;;;;;;29.02;7.40;;;8.30;79.40;;;;;;5067528;28;20009;-74
2021/03/14 11:22:51;;;;;;;27.40;8.07;;;8.30;80.10;;;;;;5083442;28;20019;-74
2021/03/14 11:25:17;;;;;;;18.63;8.00;;;7.70;80.20;;;;;;5068181;28;20009;-75
2021/03/14 11:27:42;;;;;;;25.10;7.45;;;7.10;81.80;;;;;;5069032;28;20052;-74
2021/03/14 11:30:08;;;;;;;21.08;8.57;;;6.80;83.40;;;;;;5051441;28;20016;-74
2021/03/14 11:32:34;;;;;;;25.88;8.27;;;6.30;84.60;;;;;;5065584;28;20012;-74
2021/03/14 11:35:00;;;;;;;21.95;8.23;;;5.90;86.00;;;;;;5049970;28;20027;-74
2021/03/14 11:37:25;;;;;;;22.20;8.25;;;5.60;87.70;;;;;;5068516;28;20009;-74
2021/03/14 11:39:51;;;;;;;22.85;8.70;;;5.70;88.70;;;;;;5068097;28;20016;-74
2021/03/14 11:42:17;;;;;;;18.77;8.27;;;5.80;88.40;;;;;;5071846;28;20012;-75
2021/03/14 11:44:42;;;;;;;22.10;7.97;;;6.00;88.00;;;;;;5068427;28;20016;-74
2021/03/14 11:47:08;;;;;;;18.25;7.25;;;5.90;87.60;;;;;;5068595;28;20221;-74
2021/03/14 11:49:34;;;;;;;33.67;8.82;;;5.90;87.20;;;;;;5068539;28;20025;-74
2021/03/14 11:51:59;;;;;;;25.98;8.25;;;5.90;87.30;;;;;;5067889;28;20017;-74
2021/03/14 11:54:25;;;;;;;21.02;7.65;;;5.80;87.30;;;;;;5051403;28;20021;-74
2021/03/14 11:56:51;;;;;;;24.40;8.57;;;6.00;87.10;;;;;;5047462;28;20013;-74
2021/03/14 11:59:16;;;;;;;29.77;10.15;;;6.20;85.60;;;;;;5031401;28;20021;-74
2021/03/14 12:01:43;;;;;;;24.30;10.32;;;6.00;86.40;;;;;;5060812;28;20123;-74
2021/03/14 12:04:09;;;;;;;26.15;11.18;;;6.10;86.80;;;;;;5052584;28;20009;-74
2021/03/14 12:06:35;;;;;;;25.20;10.65;;;6.10;86.00;;;;;;5071110;28;20051;-74
2021/03/14 12:09:01;;;;;;;24.42;10.75;;;6.00;86.10;;;;;;5071181;28;20088;-74
2021/03/14 12:11:26;;;;;;;20.58;10.98;;;6.20;86.50;;;;;;5054785;28;20338;-74
2021/03/14 12:13:52;;;;;;;25.02;10.93;;;6.30;85.70;;;;;;5070380;28;20025;-73
2021/03/14 12:16:18;;;;;;;31.92;11.75;;;6.40;85.30;;;;;;5070593;28;20020;-74
2021/03/14 12:18:43;;;;;;;22.23;10.38;;;6.40;85.20;;;;;;5071570;28;20020;-74
2021/03/14 12:21:10;;;;;;;24.73;10.55;;;6.40;84.70;;;;;;5055292;28;20021;-74
2021/03/14 12:23:36;;;;;;;31.25;11.70;;;6.30;84.80;;;;;;5088813;28;20067;-74
2021/03/14 12:26:05;;;;;;;26.15;10.75;;;6.30;85.20;;;;;;5070927;28;20016;-74
2021/03/14 12:28:31;;;;;;;22.85;10.00;;;6.40;85.10;;;;;;5071280;28;20015;-74
2021/03/14 12:30:57;;;;;;;25.48;10.13;;;6.60;84.50;;;;;;5069728;28;20059;-75
2021/03/14 12:33:23;;;;;;;22.10;9.80;;;6.30;83.80;;;;;;5055445;28;20038;-74
2021/03/14 12:35:49;;;;;;;24.05;10.40;;;6.20;85.10;;;;;;5069447;28;20016;-74
2021/03/14 12:38:15;;;;;;;23.75;10.23;;;6.30;85.30;;;;;;5070357;28;20218;-73
2021/03/14 12:40:45;;;;;;;31.70;11.25;;;6.10;85.60;;;;;;5047135;28;20041;-74
2021/03/14 12:43:11;;;;;;;24.38;9.73;;;6.00;86.30;;;;;;5047898;28;20366;-74
2021/03/14 12:45:37;;;;;;;23.77;9.50;;;6.10;86.20;;;;;;5053581;28;20096;-74
2021/03/14 12:48:04;;;;;;;24.63;10.23;;;6.30;85.90;;;;;;5039573;28;20013;-74